Time;durP1;ratioP1;P1;durP2;ratioP2;P2;SDS_P1;SDS_P2;PMS_P1;PMS_P2;Temp;Humidity;BMP_temperature;BMP_pressure;BME280_temperature;BME280_humidity;BME280_pressure;Samples;Min_cycle;Max_cycle;Signal;HPM_P1;HPM_P2
2022/08/28 00:00:26;;;;;;;8.77;2.85;;;;;;;;;;1027953;28;20069;-73
2022/08/28 00:00:58;;;;;;;11.18;3.17;;;;;;;;;;1028069;28;20094;-73
2022/08/28 00:01:28;;;;;;;16.35;3.22;;;;;;;;;;1028357;28;20037;-73
2022/08/28 00:01:59;;;;;;;6.05;2.88;;;;;;;;;;1027880;28;20105;-73
2022/08/28 00:02:32;;;;;;;8.75;3.28;;;;;;;;;;1028069;28;20419;-73
2022/08/28 00:03:03;;;;;;;20.50;3.63;;;;;;;;;;1027910;28;20022;-73
2022/08/28 00:03:34;;;;;;;12.07;2.92;;;;;;;;;;1028126;28;20034;-73
2022/08/28 00:04:04;;;;;;;9.48;2.83;;;;;;;;;;1023953;28;20031;-73
2022/08/28 00:04:35;;;;;;;9.15;2.33;;;;;;;;;;1024283;28;20117;-73
2022/08/28 00:05:07;;;;;;;9.27;2.60;;;;;;;;;;1027941;28;20514;-73
2022/08/28 00:05:41;;;;;;;15.70;3.63;;;;;;;;;;1028108;28;20037;-73
2022/08/28 00:06:11;;;;;;;10.23;2.30;;;;;;;;;;1027922;28;20121;-73
2022/08/28 00:06:42;;;;;;;9.40;3.58;;;;;;;;;;1028065;28;20503;-73
2022/08/28 00:07:13;;;;;;;7.60;3.40;;;;;;;;;;1027892;28;20659;-73
2022/08/28 00:07:43;;;;;;;14.82;2.97;;;;;;;;;;1028160;28;20396;-73
2022/08/28 00:08:15;;;;;;;20.60;2.65;;;;;;;;;;1023924;28;20042;-73
2022/08/28 00:08:46;;;;;;;9.55;2.67;;;;;;;;;;1028106;28;20042;-73
2022/08/28 00:09:16;;;;;;;10.32;3.63;;;;;;;;;;1027917;28;20065;-73
2022/08/28 00:09:47;;;;;;;10.80;3.22;;;;;;;;;;1028169;28;20084;-73
2022/08/28 00:10:19;;;;;;;18.92;3.25;;;;;;;;;;1028205;28;20029;-73
2022/08/28 00:10:49;;;;;;;25.00;3.88;;;;;;;;;;1028453;28;20042;-73
2022/08/28 00:11:20;;;;;;;8.90;2.50;;;;;;;;;;1028074;28;20030;-73
2022/08/28 00:11:51;;;;;;;30.17;3.47;;;;;;;;;;1028387;28;20049;-73
2022/08/28 00:12:21;;;;;;;11.60;4.20;;;;;;;;;;1027668;28;20121;-73
2022/08/28 00:12:54;;;;;;;11.93;3.38;;;;;;;;;;1028168;28;20022;-73
2022/08/28 00:13:25;;;;;;;16.83;3.03;;;;;;;;;;1027912;28;20031;-73
2022/08/28 00:13:55;;;;;;;10.13;2.60;;;;;;;;;;1028166;28;20034;-74
2022/08/28 00:14:26;;;;;;;9.63;3.53;;;;;;;;;;1028211;28;20037;-73
2022/08/28 00:14:57;;;;;;;10.70;2.88;;;;;;;;;;1028411;28;20566;-73
2022/08/28 00:15:30;;;;;;;11.90;3.42;;;;;;;;;;1028340;28;20026;-73
2022/08/28 00:16:01;;;;;;;15.45;3.67;;;;;;;;;;1028314;28;20019;-73
2022/08/28 00:16:32;;;;;;;10.50;3.10;;;;;;;;;;1028347;28;20019;-73
2022/08/28 00:17:03;;;;;;;14.48;4.60;;;;;;;;;;1027851;28;20399;-73
2022/08/28 00:17:34;;;;;;;25.48;3.65;;;;;;;;;;1028051;28;20050;-73
2022/08/28 00:18:05;;;;;;;9.35;3.10;;;;;;;;;;1027963;28;20466;-73
2022/08/28 00:18:36;;;;;;;26.10;4.60;;;;;;;;;;1028144;28;20108;-73
2022/08/28 00:19:08;;;;;;;17.70;3.45;;;;;;;;;;1028224;28;20033;-73
2022/08/28 00:19:39;;;;;;;20.27;4.13;;;;;;;;;;1028413;28;20089;-73
2022/08/28 00:20:11;;;;;;;34.75;3.90;;;;;;;;;;1028205;28;20026;-73
2022/08/28 00:20:42;;;;;;;4.82;2.50;;;;;;;;;;1028382;28;20022;-73
2022/08/28 00:21:13;;;;;;;25.45;4.07;;;;;;;;;;1028247;28;20463;-73
2022/08/28 00:21:44;;;;;;;10.88;2.92;;;;;;;;;;1028419;28;20108;-73
2022/08/28 00:22:14;;;;;;;16.50;3.25;;;;;;;;;;1028048;28;20045;-73
2022/08/28 00:22:46;;;;;;;13.98;2.85;;;;;;;;;;1028355;28;20034;-73
2022/08/28 00:23:17;;;;;;;16.05;4.07;;;;;;;;;;1028201;28;20037;-73
2022/08/28 00:23:47;;;;;;;13.43;3.63;;;;;;;;;;1027922;28;20054;-73
2022/08/28 00:24:18;;;;;;;11.95;4.22;;;;;;;;;;1027831;28;20022;-73
2022/08/28 00:24:49;;;;;;;10.23;4.68;;;;;;;;;;1028061;28;20034;-73
2022/08/28 00:25:22;;;;;;;18.73;4.07;;;;;;;;;;1027810;28;20062;-73
2022/08/28 00:25:53;;;;;;;26.23;4.15;;;;;;;;;;1028014;28;20026;-73
2022/08/28 00:28:04;;;;;;;20.25;4.82;;;;;;;;;;1028149;28;20031;-73
2022/08/28 00:28:34;;;;;;;20.48;4.97;;;;;;;;;;1028304;28;20174;-73
2022/08/28 00:29:06;;;;;;;21.48;4.43;;;;;;;;;;1028208;28;20072;-73
2022/08/28 00:29:37;;;;;;;16.60;6.20;;;;;;;;;;1028295;28;20122;-73
2022/08/28 00:30:08;;;;;;;24.13;6.90;;;;;;;;;;1028204;28;20073;-73
2022/08/28 00:30:43;;;;;;;14.80;8.38;;;;;;;;;;1028356;28;20019;-73
2022/08/28 00:31:14;;;;;;;23.95;7.55;;;;;;;;;;1028189;28;20034;-73
2022/08/28 00:31:45;;;;;;;22.13;6.47;;;;;;;;;;1028340;28;20023;-73
2022/08/28 00:32:15;;;;;;;16.15;4.95;;;;;;;;;;1028192;28;20027;-73
2022/08/28 00:32:46;;;;;;;18.98;6.20;;;;;;;;;;1028298;28;20030;-73
2022/08/28 00:33:28;;;;;;;18.58;6.40;;;;;;;;;;1028145;28;20030;-73
2022/08/28 00:34:01;;;;;;;13.25;5.65;;;;;;;;;;1028262;28;20074;-73
2022/08/28 00:34:32;;;;;;;15.70;6.88;;;;;;;;;;1028303;28;20018;-73
2022/08/28 00:35:02;;;;;;;17.27;8.27;;;;;;;;;;1027768;28;20022;-73
2022/08/28 00:35:33;;;;;;;31.10;9.85;;;;;;;;;;1023882;28;20027;-73
2022/08/28 00:36:04;;;;;;;17.30;7.85;;;;;;;;;;1023961;29;20027;-73
2022/08/28 00:36:35;;;;;;;23.95;8.20;;;;;;;;;;1024116;28;20035;-73
2022/08/28 00:37:06;;;;;;;13.68;6.03;;;;;;;;;;1027862;28;20038;-73
2022/08/28 00:37:38;;;;;;;11.20;6.20;;;;;;;;;;1028340;28;20113;-73
2022/08/28 00:38:10;;;;;;;28.52;6.82;;;;;;;;;;1028165;28;20038;-73
2022/08/28 00:38:40;;;;;;;22.83;6.30;;;;;;;;;;1028244;28;20033;-73
2022/08/28 00:39:11;;;;;;;23.67;6.93;;;;;;;;;;1027717;28;20123;-73
2022/08/28 00:39:41;;;;;;;16.80;7.00;;;;;;;;;;1028001;28;20089;-73
2022/08/28 00:40:14;;;;;;;22.55;6.57;;;;;;;;;;1027881;28;20050;-73
2022/08/28 00:40:45;;;;;;;25.20;6.60;;;;;;;;;;1028003;28;20450;-73
2022/08/28 00:41:16;;;;;;;15.75;6.53;;;;;;;;;;1027706;28;20521;-73
2022/08/28 00:41:47;;;;;;;14.75;6.45;;;;;;;;;;1027831;28;20027;-73
2022/08/28 00:42:17;;;;;;;20.27;7.45;;;;;;;;;;1027790;28;20023;-73
2022/08/28 00:42:48;;;;;;;21.88;7.28;;;;;;;;;;1028007;28;20113;-73
2022/08/28 00:43:38;;;;;;;21.30;9.75;;;;;;;;;;1028130;28;20129;-73
2022/08/28 00:44:11;;;;;;;26.65;8.43;;;;;;;;;;1028138;28;20463;-73
2022/08/28 00:44:44;;;;;;;17.63;7.85;;;;;;;;;;1028282;28;20105;-73
2022/08/28 00:45:15;;;;;;;22.10;7.60;;;;;;;;;;1028127;28;20430;-74
2022/08/28 00:45:45;;;;;;;18.63;7.45;;;;;;;;;;1028227;28;20031;-73
2022/08/28 00:46:18;;;;;;;20.40;6.72;;;;;;;;;;1028067;28;20093;-73
2022/08/28 00:46:50;;;;;;;19.52;7.18;;;;;;;;;;1027770;28;20022;-73
2022/08/28 00:47:25;;;;;;;21.95;5.88;;;;;;;;;;1027692;28;20027;-73
2022/08/28 00:47:56;;;;;;;15.50;4.72;;;;;;;;;;1027890;28;20031;-73
2022/08/28 00:48:26;;;;;;;10.85;3.67;;;;;;;;;;1027715;28;20105;-73
2022/08/28 00:48:57;;;;;;;17.67;4.28;;;;;;;;;;1027222;28;20041;-73
2022/08/28 00:49:29;;;;;;;11.13;4.43;;;;;;;;;;1024045;28;20023;-73
2022/08/28 00:50:00;;;;;;;15.45;3.42;;;;;;;;;;1027902;28;20037;-73
2022/08/28 00:52:04;;;;;;;9.35;3.40;;;;;;;;;;1028218;28;20073;-73
2022/08/28 00:52:14;;;;;;;14.68;3.75;;;;;;;;;;1030497;28;20075;-73
2022/08/28 00:52:46;;;;;;;12.52;3.80;;;;;;;;;;1027846;28;20042;-73
2022/08/28 00:53:17;;;;;;;13.18;3.65;;;;;;;;;;1027792;28;20054;-73
2022/08/28 00:53:48;;;;;;;14.57;2.97;;;;;;;;;;1027916;28;20031;-73
2022/08/28 00:54:19;;;;;;;10.88;4.03;;;;;;;;;;1027629;28;20121;-73
2022/08/28 00:54:54;;;;;;;18.65;4.18;;;;;;;;;;1027971;28;20395;-73
2022/08/28 00:55:27;;;;;;;11.38;3.42;;;;;;;;;;1027772;28;20533;-73
2022/08/28 00:55:58;;;;;;;23.92;4.55;;;;;;;;;;1027752;28;20033;-73
2022/08/28 00:56:29;;;;;;;9.70;3.95;;;;;;;;;;1027862;28;20034;-73
2022/08/28 00:57:02;;;;;;;20.60;5.50;;;;;;;;;;1027807;28;20031;-73
2022/08/28 00:57:41;;;;;;;15.75;4.65;;;;;;;;;;1027968;28;20042;-73
2022/08/28 00:58:12;;;;;;;13.98;4.15;;;;;;;;;;1028073;28;20066;-73
2022/08/28 00:58:44;;;;;;;10.07;2.90;;;;;;;;;;1028263;28;20026;-73
2022/08/28 00:59:17;;;;;;;13.07;3.97;;;;;;;;;;1028035;28;20042;-73
2022/08/28 00:59:47;;;;;;;15.50;4.55;;;;;;;;;;1026576;28;20039;-73
2022/08/28 01:00:24;;;;;;;37.70;6.80;;;;;;;;;;1023644;29;20377;-73
2022/08/28 01:00:55;;;;;;;19.30;5.70;;;;;;;;;;1023996;29;20030;-73
2022/08/28 01:01:25;;;;;;;10.38;5.40;;;;;;;;;;1023780;29;20503;-74
2022/08/28 01:01:56;;;;;;;23.88;5.18;;;;;;;;;;1023979;29;20114;-73
2022/08/28 01:02:27;;;;;;;13.48;3.95;;;;;;;;;;1024116;28;20111;-73
2022/08/28 01:02:58;;;;;;;14.75;4.78;;;;;;;;;;1024122;28;20044;-73
2022/08/28 01:03:29;;;;;;;10.25;3.47;;;;;;;;;;1024164;28;20031;-74
2022/08/28 01:04:01;;;;;;;17.33;3.42;;;;;;;;;;1024128;28;20030;-73
2022/08/28 01:04:32;;;;;;;8.77;2.25;;;;;;;;;;1027773;28;20117;-73
2022/08/28 01:05:06;;;;;;;13.32;3.65;;;;;;;;;;1026214;28;20028;-73
2022/08/28 01:05:38;;;;;;;6.07;2.35;;;;;;;;;;1027752;28;20031;-73
2022/08/28 01:06:10;;;;;;;5.43;2.30;;;;;;;;;;1027736;28;20475;-73
2022/08/28 01:06:40;;;;;;;10.70;3.45;;;;;;;;;;1027958;28;20037;-73
2022/08/28 01:07:13;;;;;;;16.70;2.72;;;;;;;;;;1027684;28;20477;-73
2022/08/28 01:07:45;;;;;;;10.68;1.80;;;;;;;;;;1028225;28;20027;-73
2022/08/28 01:08:16;;;;;;;10.82;2.03;;;;;;;;;;1027882;28;20027;-73
2022/08/28 01:08:47;;;;;;;6.90;3.42;;;;;;;;;;1028223;28;20368;-73
2022/08/28 01:09:25;;;;;;;6.43;3.00;;;;;;;;;;1028040;28;20422;-73
2022/08/28 01:09:57;;;;;;;8.18;2.22;;;;;;;;;;1028213;28;20074;-73
2022/08/28 01:10:29;;;;;;;10.52;3.75;;;;;;;;;;1028085;28;20164;-73
2022/08/28 01:11:02;;;;;;;14.88;5.65;;;;;;;;;;1028079;28;20022;-74
2022/08/28 01:11:32;;;;;;;25.90;7.45;;;;;;;;;;1028114;28;20030;-73
2022/08/28 01:12:23;;;;;;;17.77;8.73;;;;;;;;;;1028062;28;20030;-73
2022/08/28 01:12:55;;;;;;;23.60;8.30;;;;;;;;;;1027442;28;20055;-74
2022/08/28 01:13:26;;;;;;;14.13;6.30;;;;;;;;;;1027699;28;20141;-73
2022/08/28 01:13:59;;;;;;;12.15;4.13;;;;;;;;;;1027805;28;20034;-73
2022/08/28 01:14:31;;;;;;;10.75;5.38;;;;;;;;;;1027821;28;20022;-73
2022/08/28 01:15:04;;;;;;;12.68;5.00;;;;;;;;;;1027636;28;20527;-73
2022/08/28 01:15:36;;;;;;;10.80;5.47;;;;;;;;;;1027701;28;20408;-74
2022/08/28 01:16:06;;;;;;;14.25;4.75;;;;;;;;;;1027709;28;20041;-73
2022/08/28 01:16:37;;;;;;;18.75;5.05;;;;;;;;;;1027913;28;20153;-73
2022/08/28 01:17:08;;;;;;;18.02;4.95;;;;;;;;;;1027657;28;20476;-74
2022/08/28 01:17:40;;;;;;;11.80;3.72;;;;;;;;;;1028103;28;20471;-73
2022/08/28 01:18:14;;;;;;;22.63;4.07;;;;;;;;;;1027585;28;20023;-73
2022/08/28 01:18:45;;;;;;;8.20;3.53;;;;;;;;;;1027775;28;20439;-73
2022/08/28 01:19:19;;;;;;;16.00;3.08;;;;;;;;;;1027745;28;20023;-73
2022/08/28 01:19:56;;;;;;;9.75;2.83;;;;;;;;;;1027783;28;20053;-73
2022/08/28 01:20:28;;;;;;;7.25;2.50;;;;;;;;;;1023592;29;20042;-73
2022/08/28 01:21:17;;;;;;;12.60;3.13;;;;;;;;;;1019685;29;20448;-73
2022/08/28 01:21:47;;;;;;;15.93;2.90;;;;;;;;;;1023359;28;20026;-74
2022/08/28 01:22:18;;;;;;;5.13;2.70;;;;;;;;;;1026253;28;20053;-74
2022/08/28 01:22:53;;;;;;;11.55;2.90;;;;;;;;;;1028133;28;20550;-74
2022/08/28 01:23:30;;;;;;;11.85;3.25;;;;;;;;;;1027949;28;20133;-74
2022/08/28 01:24:04;;;;;;;12.43;3.85;;;;;;;;;;1027981;28;20419;-74
2022/08/28 01:24:36;;;;;;;11.55;3.38;;;;;;;;;;1028226;28;20545;-74
2022/08/28 01:25:12;;;;;;;11.77;2.80;;;;;;;;;;1027989;28;20062;-73
2022/08/28 01:25:42;;;;;;;19.92;4.15;;;;;;;;;;1028160;28;20394;-73
2022/08/28 01:26:13;;;;;;;20.77;4.60;;;;;;;;;;1027950;28;20027;-73
2022/08/28 01:26:44;;;;;;;6.10;3.63;;;;;;;;;;1028175;28;20062;-73
2022/08/28 01:27:15;;;;;;;11.60;4.30;;;;;;;;;;1027860;28;20027;-74
2022/08/28 01:27:45;;;;;;;5.95;4.15;;;;;;;;;;1028158;28;20023;-74
2022/08/28 01:28:17;;;;;;;14.70;4.50;;;;;;;;;;1027829;28;20030;-74
2022/08/28 01:28:48;;;;;;;15.50;4.53;;;;;;;;;;1027766;28;20054;-74
2022/08/28 01:29:19;;;;;;;10.00;4.18;;;;;;;;;;1027389;28;20030;-74
2022/08/28 01:29:50;;;;;;;10.93;4.63;;;;;;;;;;1027697;28;20038;-74
2022/08/28 01:30:21;;;;;;;13.88;4.35;;;;;;;;;;1027653;28;20054;-74
2022/08/28 01:30:52;;;;;;;12.90;4.25;;;;;;;;;;1028146;28;20031;-74
2022/08/28 01:31:24;;;;;;;11.90;4.35;;;;;;;;;;1027980;28;20027;-74
2022/08/28 01:31:54;;;;;;;15.38;4.22;;;;;;;;;;1027629;28;20034;-74
2022/08/28 01:32:26;;;;;;;9.25;4.22;;;;;;;;;;1027647;28;20022;-74
2022/08/28 01:32:58;;;;;;;5.55;3.42;;;;;;;;;;1027748;28;20065;-74
2022/08/28 01:33:28;;;;;;;13.32;3.72;;;;;;;;;;1027766;28;20074;-74
2022/08/28 01:33:59;;;;;;;10.68;3.35;;;;;;;;;;1028049;28;20494;-74
2022/08/28 01:34:31;;;;;;;6.18;3.60;;;;;;;;;;1028029;28;20039;-74
2022/08/28 01:35:03;;;;;;;8.68;3.03;;;;;;;;;;1027949;28;20101;-74
2022/08/28 01:35:35;;;;;;;11.00;3.03;;;;;;;;;;1028100;28;20475;-74
2022/08/28 01:36:06;;;;;;;18.48;3.28;;;;;;;;;;1027490;28;20023;-74
2022/08/28 01:36:36;;;;;;;5.00;2.58;;;;;;;;;;1027782;28;20031;-74
2022/08/28 01:37:07;;;;;;;15.93;3.78;;;;;;;;;;1027673;28;20081;-74
2022/08/28 01:37:38;;;;;;;6.88;3.45;;;;;;;;;;1027669;28;20018;-74
2022/08/28 01:38:09;;;;;;;17.52;5.15;;;;;;;;;;1023582;29;20086;-74
2022/08/28 01:38:40;;;;;;;17.40;4.50;;;;;;;;;;1023810;29;20436;-74
2022/08/28 01:39:13;;;;;;;16.23;4.53;;;;;;;;;;1023502;29;20038;-74
2022/08/28 01:39:44;;;;;;;9.52;3.40;;;;;;;;;;1024425;28;20023;-74
2022/08/28 01:40:19;;;;;;;16.65;3.42;;;;;;;;;;1027570;28;20117;-74
2022/08/28 01:40:53;;;;;;;11.25;4.93;;;;;;;;;;1024602;28;20119;-74
2022/08/28 01:41:24;;;;;;;7.70;3.42;;;;;;;;;;1027589;28;20053;-74
2022/08/28 01:41:55;;;;;;;7.43;2.63;;;;;;;;;;1027618;28;20025;-74
2022/08/28 01:42:25;;;;;;;13.50;3.72;;;;;;;;;;1027462;28;20022;-74
2022/08/28 01:43:04;;;;;;;7.22;3.60;;;;;;;;;;1027847;28;20031;-74
2022/08/28 01:43:35;;;;;;;9.13;3.55;;;;;;;;;;1023721;29;20121;-74
2022/08/28 01:44:06;;;;;;;7.28;2.20;;;;;;;;;;1024868;28;20031;-74
2022/08/28 01:44:36;;;;;;;12.52;3.63;;;;;;;;;;1027807;28;20395;-74
2022/08/28 01:45:09;;;;;;;10.10;3.28;;;;;;;;;;1027631;28;20037;-74
2022/08/28 01:45:43;;;;;;;7.03;3.67;;;;;;;;;;1028103;28;20082;-74
2022/08/28 01:46:13;;;;;;;11.65;2.95;;;;;;;;;;1027914;28;20030;-74
2022/08/28 01:46:44;;;;;;;15.57;3.75;;;;;;;;;;1028069;28;20113;-74
2022/08/28 01:47:15;;;;;;;15.27;4.43;;;;;;;;;;1027827;28;20027;-74
2022/08/28 01:47:46;;;;;;;13.10;3.85;;;;;;;;;;1028021;28;20031;-74
2022/08/28 01:48:17;;;;;;;7.15;2.80;;;;;;;;;;1027813;28;20066;-74
2022/08/28 01:48:48;;;;;;;13.73;3.15;;;;;;;;;;1028133;28;20166;-74
2022/08/28 01:49:19;;;;;;;21.55;5.00;;;;;;;;;;1027899;28;20026;-74
2022/08/28 01:49:50;;;;;;;19.20;3.65;;;;;;;;;;1028112;28;20034;-74
2022/08/28 01:50:21;;;;;;;16.92;5.10;;;;;;;;;;1027916;28;20031;-74
2022/08/28 01:50:51;;;;;;;16.73;4.40;;;;;;;;;;1028113;28;20126;-74
2022/08/28 01:51:22;;;;;;;13.88;4.03;;;;;;;;;;1027865;28;20077;-75
2022/08/28 01:51:52;;;;;;;13.38;4.75;;;;;;;;;;1028015;28;20491;-74
2022/08/28 01:52:23;;;;;;;10.65;5.28;;;;;;;;;;1027848;28;20434;-74
2022/08/28 01:52:53;;;;;;;16.85;5.53;;;;;;;;;;1027639;28;20027;-74
2022/08/28 01:53:25;;;;;;;16.73;4.80;;;;;;;;;;1027573;28;20038;-74
2022/08/28 01:53:56;;;;;;;10.05;4.43;;;;;;;;;;1027760;28;20107;-74
2022/08/28 01:54:27;;;;;;;16.48;5.18;;;;;;;;;;1027651;28;20111;-74
2022/08/28 01:54:58;;;;;;;10.70;4.43;;;;;;;;;;1027528;28;20502;-74
2022/08/28 01:55:29;;;;;;;41.83;5.93;;;;;;;;;;1023596;29;20038;-74
2022/08/28 01:56:01;;;;;;;20.05;4.97;;;;;;;;;;1023568;29;20023;-74
2022/08/28 01:56:32;;;;;;;18.08;5.35;;;;;;;;;;1023993;28;20027;-74
2022/08/28 01:57:03;;;;;;;16.65;5.70;;;;;;;;;;1023472;28;20035;-73
2022/08/28 01:57:34;;;;;;;25.70;5.68;;;;;;;;;;1023649;29;20031;-74
2022/08/28 01:58:05;;;;;;;24.88;5.32;;;;;;;;;;1023859;28;20034;-74
2022/08/28 01:58:35;;;;;;;22.98;5.20;;;;;;;;;;1027742;28;20033;-74
2022/08/28 01:59:08;;;;;;;21.00;6.00;;;;;;;;;;1027920;28;20459;-74
2022/08/28 01:59:39;;;;;;;27.42;6.68;;;;;;;;;;1028016;28;20037;-74
2022/08/28 02:00:10;;;;;;;34.50;5.75;;;;;;;;;;1027840;28;20031;-74
2022/08/28 02:00:41;;;;;;;15.00;5.03;;;;;;;;;;1028060;28;20057;-74
2022/08/28 02:01:13;;;;;;;40.08;5.50;;;;;;;;;;1027926;28;20026;-74
2022/08/28 02:01:43;;;;;;;20.55;6.30;;;;;;;;;;1028054;28;20372;-74
2022/08/28 02:02:14;;;;;;;13.00;5.97;;;;;;;;;;1027370;28;20034;-74
2022/08/28 02:02:47;;;;;;;35.25;6.47;;;;;;;;;;1027739;28;20035;-74
2022/08/28 02:03:18;;;;;;;19.20;5.50;;;;;;;;;;1027546;28;20443;-74
2022/08/28 02:03:51;;;;;;;17.30;5.63;;;;;;;;;;1027663;28;20543;-74
2022/08/28 02:04:23;;;;;;;15.98;5.65;;;;;;;;;;1023470;29;20027;-74
2022/08/28 02:04:53;;;;;;;14.82;6.55;;;;;;;;;;1023742;29;20518;-74
2022/08/28 02:05:24;;;;;;;18.33;6.05;;;;;;;;;;1024161;28;20026;-74
2022/08/28 02:05:55;;;;;;;27.05;7.38;;;;;;;;;;1027774;28;20065;-74
2022/08/28 02:06:26;;;;;;;26.35;7.47;;;;;;;;;;1027813;28;20078;-74
2022/08/28 02:06:56;;;;;;;24.33;8.20;;;;;;;;;;1028028;28;20038;-74
2022/08/28 02:07:27;;;;;;;36.35;9.40;;;;;;;;;;1027887;28;20373;-74
2022/08/28 02:07:58;;;;;;;18.67;7.88;;;;;;;;;;1027940;28;20046;-73
2022/08/28 02:08:28;;;;;;;26.17;8.00;;;;;;;;;;1027911;28;20030;-74
2022/08/28 02:08:59;;;;;;;20.00;8.73;;;;;;;;;;1027517;28;20074;-74
2022/08/28 02:09:30;;;;;;;25.15;7.57;;;;;;;;;;1027649;28;20074;-74
2022/08/28 02:10:01;;;;;;;27.33;8.55;;;;;;;;;;1027560;28;20023;-74
2022/08/28 02:10:35;;;;;;;22.17;6.93;;;;;;;;;;1027584;28;20058;-74
2022/08/28 02:11:07;;;;;;;24.38;8.23;;;;;;;;;;1027521;28;20041;-74
2022/08/28 02:11:40;;;;;;;22.77;6.93;;;;;;;;;;1027695;28;20038;-74
2022/08/28 02:12:10;;;;;;;31.20;6.78;;;;;;;;;;1027355;28;20486;-74
2022/08/28 02:12:42;;;;;;;27.83;7.18;;;;;;;;;;1027624;28;20041;-74
2022/08/28 02:13:13;;;;;;;16.08;4.90;;;;;;;;;;1027506;28;20522;-74
2022/08/28 02:13:43;;;;;;;20.52;6.63;;;;;;;;;;1027760;28;20034;-74
2022/08/28 02:14:14;;;;;;;24.65;5.00;;;;;;;;;;1027554;28;20031;-74
2022/08/28 02:14:45;;;;;;;13.48;5.32;;;;;;;;;;1027666;28;20030;-74
2022/08/28 02:15:15;;;;;;;10.32;4.45;;;;;;;;;;1027569;28;20452;-74
2022/08/28 02:15:46;;;;;;;13.88;5.32;;;;;;;;;;1023707;28;20035;-74
2022/08/28 02:16:17;;;;;;;13.25;4.70;;;;;;;;;;1023635;28;20118;-74
2022/08/28 02:16:48;;;;;;;22.02;4.40;;;;;;;;;;1027689;28;20089;-74
2022/08/28 02:17:19;;;;;;;12.60;3.80;;;;;;;;;;1027523;28;20033;-74
2022/08/28 02:17:50;;;;;;;26.95;5.00;;;;;;;;;;1023830;28;20039;-74
2022/08/28 02:18:20;;;;;;;14.85;4.18;;;;;;;;;;1027497;28;20539;-74
2022/08/28 02:18:52;;;;;;;11.50;4.82;;;;;;;;;;1027754;28;20601;-74
2022/08/28 02:19:23;;;;;;;11.85;4.00;;;;;;;;;;1027564;28;20081;-74
2022/08/28 02:19:54;;;;;;;16.27;3.60;;;;;;;;;;1027944;28;20114;-74
2022/08/28 02:20:25;;;;;;;17.90;4.00;;;;;;;;;;1027763;28;20034;-74
2022/08/28 02:20:55;;;;;;;20.17;5.28;;;;;;;;;;1027594;28;20026;-74
2022/08/28 02:21:26;;;;;;;14.57;4.30;;;;;;;;;;1027508;28;20109;-74
2022/08/28 02:21:57;;;;;;;10.52;4.00;;;;;;;;;;1027657;28;20490;-74
2022/08/28 02:22:27;;;;;;;13.95;4.40;;;;;;;;;;1027524;28;20029;-74
2022/08/28 02:22:58;;;;;;;16.02;3.67;;;;;;;;;;1027934;28;20030;-74
2022/08/28 02:23:29;;;;;;;26.45;5.60;;;;;;;;;;1027532;28;20026;-74
2022/08/28 02:24:00;;;;;;;11.00;4.78;;;;;;;;;;1027607;28;20537;-74
2022/08/28 02:24:30;;;;;;;20.73;5.32;;;;;;;;;;1027508;28;20481;-74
2022/08/28 02:25:02;;;;;;;22.83;4.50;;;;;;;;;;1027623;28;20023;-74
2022/08/28 02:25:33;;;;;;;16.85;5.15;;;;;;;;;;1027656;28;20492;-74
2022/08/28 02:26:04;;;;;;;16.30;5.35;;;;;;;;;;1027630;28;20124;-74
2022/08/28 02:26:34;;;;;;;21.98;5.22;;;;;;;;;;1027570;28;20039;-74
2022/08/28 02:27:05;;;;;;;12.95;4.80;;;;;;;;;;1027470;28;20034;-74
2022/08/28 02:27:36;;;;;;;25.33;4.82;;;;;;;;;;1027695;28;20027;-74
2022/08/28 02:28:07;;;;;;;13.77;5.80;;;;;;;;;;1027417;28;20126;-74
2022/08/28 02:28:39;;;;;;;17.25;4.78;;;;;;;;;;1027681;28;20027;-74
2022/08/28 02:29:10;;;;;;;19.25;6.35;;;;;;;;;;1027559;28;20129;-74
2022/08/28 02:29:41;;;;;;;16.80;7.65;;;;;;;;;;1027769;28;20062;-74
2022/08/28 02:30:13;;;;;;;16.92;6.80;;;;;;;;;;1027854;28;20034;-74
2022/08/28 02:30:44;;;;;;;15.25;5.20;;;;;;;;;;1028029;28;20019;-74
2022/08/28 02:31:14;;;;;;;21.08;3.78;;;;;;;;;;1027793;28;20117;-74
2022/08/28 02:31:45;;;;;;;23.55;4.47;;;;;;;;;;1027512;28;20074;-74
2022/08/28 02:32:17;;;;;;;17.80;3.60;;;;;;;;;;1027527;28;20546;-74
2022/08/28 02:32:48;;;;;;;12.55;3.55;;;;;;;;;;1027640;28;20027;-74
2022/08/28 02:33:19;;;;;;;12.32;3.28;;;;;;;;;;1027449;28;20023;-74
2022/08/28 02:33:50;;;;;;;14.02;3.85;;;;;;;;;;1027632;28;20035;-74
2022/08/28 02:34:20;;;;;;;14.25;3.60;;;;;;;;;;1027392;28;20118;-74
2022/08/28 02:34:52;;;;;;;12.85;3.90;;;;;;;;;;1027652;28;20022;-74
2022/08/28 02:35:23;;;;;;;14.32;4.25;;;;;;;;;;1027487;28;20476;-74
2022/08/28 02:35:53;;;;;;;9.20;3.58;;;;;;;;;;1027727;28;20081;-74
2022/08/28 02:36:24;;;;;;;9.70;3.78;;;;;;;;;;1027500;28;20058;-74
2022/08/28 02:36:55;;;;;;;12.18;4.03;;;;;;;;;;1027997;28;20466;-74
2022/08/28 02:37:25;;;;;;;10.82;3.92;;;;;;;;;;1027352;28;20034;-74
2022/08/28 02:37:56;;;;;;;10.73;3.60;;;;;;;;;;1027723;28;20061;-74
2022/08/28 02:38:28;;;;;;;11.18;4.20;;;;;;;;;;1023492;29;20041;-74
2022/08/28 02:38:59;;;;;;;12.82;3.65;;;;;;;;;;1023891;28;20073;-74
2022/08/28 02:39:30;;;;;;;17.35;4.47;;;;;;;;;;1027585;28;20505;-74
2022/08/28 02:40:01;;;;;;;14.00;4.07;;;;;;;;;;1027534;28;20039;-74
2022/08/28 02:40:31;;;;;;;8.32;2.75;;;;;;;;;;1027941;28;20031;-74
2022/08/28 02:41:02;;;;;;;18.08;4.78;;;;;;;;;;1027465;28;20027;-74
2022/08/28 02:41:32;;;;;;;19.00;3.42;;;;;;;;;;1027665;28;20026;-74
2022/08/28 02:42:03;;;;;;;16.17;3.10;;;;;;;;;;1028303;28;20039;-74
2022/08/28 02:42:34;;;;;;;9.38;2.72;;;;;;;;;;1028413;28;20027;-74
2022/08/28 02:43:04;;;;;;;14.23;3.20;;;;;;;;;;1028206;28;20031;-74
2022/08/28 02:43:35;;;;;;;13.95;3.35;;;;;;;;;;1028487;28;20027;-74
2022/08/28 02:44:06;;;;;;;18.73;4.25;;;;;;;;;;1028121;28;20659;-74
2022/08/28 02:44:36;;;;;;;9.77;2.72;;;;;;;;;;1028465;28;20030;-74
2022/08/28 02:45:09;;;;;;;8.80;3.25;;;;;;;;;;1028112;28;20033;-74
2022/08/28 02:45:40;;;;;;;11.43;3.03;;;;;;;;;;1028434;28;20121;-74
2022/08/28 02:46:10;;;;;;;18.08;3.50;;;;;;;;;;1028277;28;20077;-74
2022/08/28 02:46:41;;;;;;;15.77;2.90;;;;;;;;;;1028425;28;20034;-75
2022/08/28 02:47:13;;;;;;;7.25;2.83;;;;;;;;;;1028508;28;20033;-74
2022/08/28 02:47:45;;;;;;;5.68;2.45;;;;;;;;;;1028710;28;20030;-74
2022/08/28 02:48:15;;;;;;;10.52;3.03;;;;;;;;;;1028477;28;20483;-74
2022/08/28 02:48:46;;;;;;;12.82;3.53;;;;;;;;;;1028795;28;20019;-74
2022/08/28 02:49:16;;;;;;;12.70;2.25;;;;;;;;;;1028508;28;20538;-74
2022/08/28 02:49:47;;;;;;;14.55;3.40;;;;;;;;;;1028795;28;20479;-74
2022/08/28 02:50:18;;;;;;;10.45;2.70;;;;;;;;;;1028078;28;20038;-74
2022/08/28 02:50:49;;;;;;;6.65;2.03;;;;;;;;;;1028480;28;20419;-74
2022/08/28 02:51:19;;;;;;;8.50;2.15;;;;;;;;;;1028217;28;20035;-74
2022/08/28 02:51:50;;;;;;;8.25;2.28;;;;;;;;;;1028344;28;20066;-74
2022/08/28 02:52:22;;;;;;;9.02;2.63;;;;;;;;;;1028554;28;20054;-74
2022/08/28 02:52:53;;;;;;;11.93;2.22;;;;;;;;;;1028760;28;20038;-74
2022/08/28 02:53:23;;;;;;;9.35;2.20;;;;;;;;;;1028509;28;20386;-74
2022/08/28 02:53:54;;;;;;;13.40;2.25;;;;;;;;;;1028734;28;20117;-74
2022/08/28 02:54:27;;;;;;;5.13;2.50;;;;;;;;;;1028519;28;20112;-74
2022/08/28 02:54:58;;;;;;;23.20;2.97;;;;;;;;;;1028609;28;20030;-74
2022/08/28 02:55:28;;;;;;;12.90;2.90;;;;;;;;;;1028665;28;20062;-74
2022/08/28 02:55:59;;;;;;;14.15;3.30;;;;;;;;;;1028613;28;20034;-74
2022/08/28 02:56:30;;;;;;;7.70;2.67;;;;;;;;;;1028641;28;20079;-74
2022/08/28 02:57:01;;;;;;;10.40;2.13;;;;;;;;;;1028518;28;20023;-74
2022/08/28 02:57:31;;;;;;;10.75;2.83;;;;;;;;;;1028644;28;20035;-73
2022/08/28 02:58:02;;;;;;;12.68;3.00;;;;;;;;;;1028565;28;20475;-75
2022/08/28 02:58:34;;;;;;;14.68;2.15;;;;;;;;;;1028672;28;20061;-76
2022/08/28 02:59:05;;;;;;;12.60;3.13;;;;;;;;;;1028536;28;20030;-76
2022/08/28 02:59:36;;;;;;;7.03;1.95;;;;;;;;;;1028676;28;20027;-73
2022/08/28 03:00:10;;;;;;;8.25;1.88;;;;;;;;;;1024556;28;20038;-73
2022/08/28 03:00:42;;;;;;;7.70;1.48;;;;;;;;;;1024293;29;20059;-73
2022/08/28 03:01:13;;;;;;;8.90;2.65;;;;;;;;;;1024184;29;20032;-73
2022/08/28 03:01:44;;;;;;;14.32;2.05;;;;;;;;;;1024408;29;20416;-73
2022/08/28 03:02:15;;;;;;;6.55;2.00;;;;;;;;;;1024159;28;20023;-76
2022/08/28 03:02:46;;;;;;;7.47;2.05;;;;;;;;;;1024715;28;20086;-76
2022/08/28 03:03:16;;;;;;;7.13;2.05;;;;;;;;;;1024526;28;20546;-76
2022/08/28 03:03:47;;;;;;;7.35;2.67;;;;;;;;;;1028264;28;20514;-76
2022/08/28 03:04:18;;;;;;;9.00;2.22;;;;;;;;;;1028188;28;20091;-73
2022/08/28 03:04:48;;;;;;;9.07;2.53;;;;;;;;;;1029015;28;20030;-74
2022/08/28 03:05:21;;;;;;;14.00;2.35;;;;;;;;;;1032043;28;20026;-73
2022/08/28 03:05:51;;;;;;;9.43;2.58;;;;;;;;;;1028258;28;20033;-75
2022/08/28 03:06:22;;;;;;;5.75;1.95;;;;;;;;;;1028164;28;20545;-74
2022/08/28 03:06:52;;;;;;;9.20;2.13;;;;;;;;;;1028324;28;20514;-73
2022/08/28 03:07:23;;;;;;;6.25;2.20;;;;;;;;;;1028187;28;20070;-73
2022/08/28 03:07:54;;;;;;;10.38;2.08;;;;;;;;;;1028255;28;20034;-73
2022/08/28 03:08:25;;;;;;;4.15;1.88;;;;;;;;;;1028056;28;20129;-73
2022/08/28 03:08:56;;;;;;;10.40;2.55;;;;;;;;;;1028415;28;20082;-73
2022/08/28 03:09:27;;;;;;;11.23;2.53;;;;;;;;;;1028130;28;20122;-75
2022/08/28 03:09:57;;;;;;;13.20;2.55;;;;;;;;;;1028651;28;20077;-75